createdAt,value
2018-09-12T04:41:36.900Z,1.30
2018-09-12T04:42:36.947Z,1.60
2018-09-12T04:43:36.870Z,1.30
2018-09-12T04:44:36.854Z,1.30
2018-09-12T04:45:36.837Z,1.50
2018-09-12T04:46:36.824Z,1.60
2018-09-12T04:47:36.809Z,1.30
2018-09-12T04:48:36.833Z,1.20
2018-09-12T04:49:36.770Z,1.20
2018-09-12T04:50:36.752Z,1.20
2018-09-12T04:51:36.736Z,1.40
2018-09-12T04:52:36.721Z,1.60
2018-09-12T04:53:36.701Z,1.40
2018-09-12T04:54:36.687Z,1.30
2018-09-12T04:55:36.672Z,1.60
2018-09-12T04:56:36.655Z,1.50
2018-09-12T04:57:36.639Z,1.30
2018-09-12T04:58:36.620Z,1.50
2018-09-12T04:59:36.639Z,1.40
2018-09-12T05:00:36.588Z,1.40
2018-09-12T05:01:36.570Z,1.30
2018-09-12T05:02:36.557Z,1.40
2018-09-12T05:03:36.543Z,1.40
2018-09-12T05:04:36.526Z,1.60
2018-09-12T05:05:36.504Z,1.80
2018-09-12T05:06:36.488Z,1.60
2018-09-12T05:07:36.472Z,1.90
2018-09-12T05:08:36.455Z,1.70
2018-09-12T05:09:36.437Z,1.60
2018-09-12T05:10:36.421Z,1.60
2018-09-12T05:11:36.405Z,1.50
2018-09-12T05:12:36.391Z,1.70
2018-09-12T05:13:36.373Z,1.80
2018-09-12T05:14:36.366Z,1.30
2018-09-12T05:15:36.340Z,1.30
2018-09-12T05:16:36.354Z,1.20
2018-09-12T05:17:36.311Z,1.50
2018-09-12T05:18:36.289Z,1.60
2018-09-12T05:19:36.274Z,1.50
2018-09-12T05:20:36.255Z,2.10
2018-09-12T05:21:36.242Z,1.40
2018-09-12T05:22:36.227Z,1.40
2018-09-12T05:23:36.209Z,1.50
2018-09-12T05:24:36.196Z,1.50
2018-09-12T05:25:36.177Z,1.70
2018-09-12T05:26:36.160Z,1.90
2018-09-12T05:27:36.144Z,1.70
2018-09-12T05:28:36.257Z,2.20
2018-09-12T05:29:36.111Z,2.00
2018-09-12T05:30:36.106Z,1.60
2018-09-12T05:31:36.077Z,1.50
2018-09-12T05:32:36.062Z,1.40
2018-09-12T05:33:36.047Z,1.90
2018-09-12T05:34:36.037Z,1.40
2018-09-12T05:35:36.012Z,1.70
2018-09-12T05:36:35.998Z,2.00
2018-09-12T05:37:35.980Z,2.20
2018-09-12T05:38:35.975Z,2.30
2018-09-12T05:39:35.951Z,2.40
2018-09-12T05:40:35.928Z,2.10
2018-09-12T05:41:35.914Z,2.00
2018-09-12T05:42:35.898Z,1.90
2018-09-12T05:43:35.883Z,1.90
2018-09-12T05:44:35.865Z,2.00
2018-09-12T05:45:35.848Z,1.70
2018-09-12T05:46:35.833Z,1.80
2018-09-12T05:47:35.830Z,1.80
2018-09-12T05:48:35.801Z,1.90
2018-09-12T05:49:35.784Z,1.80
2018-09-12T05:50:35.768Z,1.70
2018-09-12T05:51:35.750Z,1.80
2018-09-12T05:52:35.737Z,2.00
2018-09-12T05:53:35.721Z,1.80
2018-09-12T05:54:35.703Z,1.90
2018-09-12T05:55:35.686Z,1.70
2018-09-12T05:56:35.675Z,2.20
2018-09-12T05:57:35.656Z,1.40
2018-09-12T05:58:35.651Z,1.40
2018-09-12T05:59:35.634Z,1.50
2018-09-12T06:00:35.608Z,1.60
2018-09-12T06:01:35.592Z,1.70
2018-09-12T06:02:35.576Z,2.00
2018-09-12T06:03:35.560Z,1.90
2018-09-12T06:04:35.542Z,1.50
2018-09-12T06:05:35.530Z,1.50
2018-09-12T06:06:35.674Z,1.50
2018-09-12T06:07:35.494Z,1.50
2018-09-12T06:08:35.479Z,2.00
2018-09-12T06:09:35.465Z,1.50
2018-09-12T06:10:35.448Z,1.50
2018-09-12T06:11:35.433Z,1.40
2018-09-12T06:12:35.416Z,1.90
2018-09-12T06:13:35.401Z,1.50
2018-09-12T06:14:35.385Z,1.20
2018-09-12T06:15:35.369Z,1.10
2018-09-12T06:16:35.353Z,1.20
2018-09-12T06:17:35.342Z,1.20
2018-09-12T06:18:35.323Z,1.40
2018-09-12T06:19:35.310Z,1.30
2018-09-12T06:20:35.289Z,1.30
2018-09-12T06:21:35.277Z,1.20
2018-09-12T06:22:35.265Z,1.50
2018-09-12T06:23:35.243Z,1.30
2018-09-12T06:24:35.234Z,1.20
2018-09-12T06:25:35.214Z,1.10
2018-09-12T06:26:35.197Z,1.20
2018-09-12T06:27:35.184Z,1.20
2018-09-12T06:28:35.167Z,1.20
2018-09-12T06:29:35.152Z,1.20
2018-09-12T06:30:35.189Z,1.20
2018-09-12T06:31:35.123Z,1.00
2018-09-12T06:32:35.104Z,1.30
2018-09-12T06:33:35.102Z,1.30
2018-09-12T06:34:35.078Z,1.30
2018-09-12T06:35:35.059Z,1.00
2018-09-12T06:36:35.046Z,1.20
2018-09-12T06:37:35.030Z,1.60
2018-09-12T06:38:35.017Z,1.20
2018-09-12T06:39:35.004Z,1.10
2018-09-12T06:40:34.992Z,1.30
2018-09-12T06:41:34.968Z,1.30
2018-09-12T06:42:34.954Z,1.30
2018-09-12T06:43:34.940Z,1.20
2018-09-12T06:44:34.985Z,1.30
2018-09-12T06:45:34.913Z,1.20
2018-09-12T06:46:34.895Z,1.20
2018-09-12T06:47:34.880Z,1.30
2018-09-12T06:48:34.870Z,1.10
2018-09-12T06:49:34.850Z,1.20
2018-09-12T06:50:34.836Z,1.10
2018-09-12T06:51:34.823Z,1.10
2018-09-12T06:52:34.811Z,1.30
2018-09-12T06:53:34.792Z,1.40
2018-09-12T06:54:34.814Z,1.30
2018-09-12T06:55:34.768Z,1.40
2018-09-12T06:56:34.750Z,1.10
2018-09-12T06:57:34.734Z,1.30
2018-09-12T06:58:34.722Z,1.20
2018-09-12T06:59:34.708Z,1.50
2018-09-12T07:00:34.718Z,1.40
2018-09-12T07:01:34.678Z,1.30
2018-09-12T07:02:34.666Z,1.50
2018-09-12T07:03:34.653Z,1.50
2018-09-12T07:04:34.638Z,1.00
2018-09-12T07:05:34.624Z,1.40
2018-09-12T07:06:34.611Z,1.30
2018-09-12T07:07:34.602Z,1.40
2018-09-12T07:08:34.583Z,1.30
2018-09-12T07:09:34.572Z,1.30
2018-09-12T07:10:34.558Z,1.00
2018-09-12T07:11:34.543Z,1.30
2018-09-12T07:12:34.532Z,1.30
2018-09-12T07:13:34.520Z,1.10
2018-09-12T07:14:34.508Z,1.50
2018-09-12T07:15:34.496Z,1.40
2018-09-12T07:16:34.484Z,1.30
2018-09-12T07:17:34.473Z,1.10
2018-09-12T07:18:34.462Z,1.10
2018-09-12T07:19:34.508Z,1.10
2018-09-12T07:20:34.440Z,1.00
2018-09-12T07:21:34.428Z,1.20
2018-09-12T07:22:34.417Z,1.20
2018-09-12T07:23:34.407Z,1.10
2018-09-12T07:24:34.491Z,1.20
2018-09-12T07:25:34.387Z,1.10
2018-09-12T07:26:34.377Z,1.20
2018-09-12T07:27:34.418Z,1.10
2018-09-12T07:28:34.358Z,1.10
2018-09-12T07:29:34.353Z,1.00
2018-09-12T07:30:34.387Z,1.20
2018-09-12T07:31:34.334Z,1.10
2018-09-12T07:32:34.322Z,1.10
2018-09-12T07:33:34.313Z,1.00
2018-09-12T07:34:34.306Z,1.00
2018-09-12T07:35:34.298Z,1.20
2018-09-12T07:36:34.293Z,1.00
2018-09-12T07:37:34.284Z,1.20
2018-09-12T07:38:34.284Z,1.00
2018-09-12T07:39:34.272Z,0.90
2018-09-12T07:40:34.268Z,1.10
2018-09-12T07:41:34.270Z,1.10
2018-09-12T07:42:34.260Z,0.90
2018-09-12T07:43:34.242Z,1.30
2018-09-12T07:44:34.236Z,0.90
2018-09-12T07:45:34.232Z,1.00
2018-09-12T07:46:34.226Z,1.00
2018-09-12T07:47:34.218Z,0.80
2018-09-12T07:48:34.221Z,0.90
2018-09-12T07:49:34.205Z,0.90
2018-09-12T07:50:34.201Z,1.00
2018-09-12T07:51:34.196Z,1.00
2018-09-12T07:52:34.188Z,1.40
2018-09-12T07:53:34.183Z,0.80
2018-09-12T07:54:34.179Z,1.10
2018-09-12T07:55:34.191Z,0.90
2018-09-12T07:56:34.173Z,0.80
2018-09-12T07:57:34.162Z,0.90
2018-09-12T07:58:34.158Z,0.70
2018-09-12T07:59:34.153Z,1.20
2018-09-12T08:00:34.219Z,1.00
2018-09-12T08:01:34.143Z,0.80
2018-09-12T08:02:34.139Z,0.90
2018-09-12T08:03:34.136Z,0.80
2018-09-12T08:04:34.128Z,0.90
2018-09-12T08:05:34.128Z,0.90
2018-09-12T08:06:34.119Z,0.80
2018-09-12T08:07:34.115Z,1.00
2018-09-12T08:08:34.110Z,0.90
2018-09-12T08:09:34.106Z,0.80
2018-09-12T08:10:34.103Z,0.90
2018-09-12T08:11:34.100Z,0.80
2018-09-12T08:12:34.093Z,0.90
2018-09-12T08:13:34.091Z,0.80
2018-09-12T08:14:34.087Z,0.90
2018-09-12T08:15:34.085Z,0.80
2018-09-12T08:16:34.078Z,0.80
2018-09-12T08:17:34.080Z,0.70
2018-09-12T08:18:34.071Z,0.80
2018-09-12T08:19:34.068Z,0.70
2018-09-12T08:20:34.061Z,0.80
2018-09-12T08:21:34.061Z,1.00
2018-09-12T08:22:34.055Z,1.00
2018-09-12T08:23:34.056Z,0.80
2018-09-12T08:24:34.048Z,0.90
2018-09-12T08:25:34.053Z,0.80
2018-09-12T08:26:34.084Z,0.80
2018-09-12T08:27:34.040Z,0.70
2018-09-12T08:28:34.037Z,0.70
2018-09-12T08:29:34.040Z,0.60
2018-09-12T08:30:34.030Z,0.70
2018-09-12T08:31:34.032Z,0.70
2018-09-12T08:32:34.023Z,0.60
2018-09-12T08:33:34.019Z,0.60
2018-09-12T08:34:34.023Z,0.80
2018-09-12T08:35:34.017Z,0.60
2018-09-12T08:36:34.091Z,0.80
2018-09-12T08:37:34.012Z,0.80
2018-09-12T08:38:34.007Z,0.70
2018-09-12T08:39:34.005Z,0.80
2018-09-12T08:40:34.004Z,0.80
2018-09-12T08:41:33.994Z,0.60
2018-09-12T08:42:34.052Z,0.80
2018-09-12T08:43:33.988Z,0.80
2018-09-12T08:44:33.985Z,0.80
2018-09-12T08:45:33.983Z,0.70
2018-09-12T08:46:33.981Z,0.70
2018-09-12T08:47:33.980Z,0.80
2018-09-12T08:48:33.978Z,0.70
2018-09-12T08:49:33.970Z,0.70
2018-09-12T08:50:33.972Z,0.70
2018-09-12T08:51:33.967Z,0.60
2018-09-12T08:52:33.962Z,0.60
2018-09-12T08:53:33.957Z,0.60
2018-09-12T08:54:33.956Z,0.60
2018-09-12T08:55:33.954Z,0.60
2018-09-12T08:56:33.959Z,0.50
2018-09-12T08:57:33.948Z,0.70
2018-09-12T08:58:33.943Z,0.60
2018-09-12T08:59:33.938Z,0.60
2018-09-12T09:00:33.936Z,0.70
2018-09-12T09:01:33.969Z,0.70
2018-09-12T09:02:33.932Z,0.70
2018-09-12T09:03:33.926Z,0.60
2018-09-12T09:04:33.921Z,0.60
2018-09-12T09:05:33.920Z,0.60
2018-09-12T09:06:33.913Z,0.60
2018-09-12T09:07:33.909Z,0.50
2018-09-12T09:08:33.913Z,0.70
2018-09-12T09:09:33.905Z,0.80
2018-09-12T09:10:33.971Z,0.60
2018-09-12T09:11:33.893Z,1.10
2018-09-12T09:12:33.889Z,0.90
2018-09-12T09:13:33.895Z,0.80
2018-09-12T09:14:33.880Z,0.70
2018-09-12T09:15:33.876Z,0.80
2018-09-12T09:16:33.870Z,0.80
2018-09-12T09:17:33.867Z,0.70
2018-09-12T09:18:33.862Z,0.80
2018-09-12T09:19:33.857Z,0.70
2018-09-12T09:20:33.852Z,0.90
2018-09-12T09:21:33.849Z,0.80
2018-09-12T09:22:33.843Z,0.80
2018-09-12T09:23:33.860Z,0.70
2018-09-12T09:24:33.837Z,0.90
2018-09-12T09:25:33.835Z,0.70
2018-09-12T09:26:33.827Z,0.70
2018-09-12T09:27:33.823Z,0.90
2018-09-12T09:28:33.817Z,0.80
2018-09-12T09:29:33.818Z,0.80
2018-09-12T09:30:33.811Z,0.90
2018-09-12T09:31:33.804Z,0.90
2018-09-12T09:32:33.836Z,1.10
2018-09-12T09:33:33.795Z,0.90
2018-09-12T09:34:33.792Z,0.80
2018-09-12T09:35:33.934Z,0.80
2018-09-12T09:36:33.782Z,0.70
2018-09-12T09:37:33.779Z,0.70
2018-09-12T09:38:33.776Z,1.00
2018-09-12T09:39:33.774Z,0.90
2018-09-12T09:40:33.763Z,0.70
2018-09-12T09:41:33.761Z,0.80
2018-09-12T09:42:33.759Z,0.70
2018-09-12T09:43:33.756Z,0.70
2018-09-12T09:44:33.752Z,0.70
2018-09-12T09:45:33.748Z,0.80
2018-09-12T09:46:33.744Z,0.80
2018-09-12T09:47:33.741Z,0.70
2018-09-12T09:48:33.736Z,0.60
2018-09-12T09:49:33.734Z,0.70
2018-09-12T09:50:33.729Z,0.50
2018-09-12T09:51:33.726Z,0.50
2018-09-12T09:52:33.725Z,0.40
2018-09-12T09:53:33.717Z,0.50
2018-09-12T09:54:33.737Z,0.50
2018-09-12T09:55:33.711Z,0.50
2018-09-12T09:56:33.707Z,0.60
2018-09-12T09:57:33.701Z,0.50
2018-09-12T09:58:33.699Z,0.60
2018-09-12T09:59:33.699Z,0.60
2018-09-12T10:00:33.696Z,0.60
2018-09-12T10:01:33.689Z,0.60
2018-09-12T10:02:33.683Z,0.60
2018-09-12T10:03:33.681Z,0.60
2018-09-12T10:04:33.677Z,0.60
2018-09-12T10:05:33.672Z,0.60
2018-09-12T10:06:33.666Z,0.60
2018-09-12T10:07:33.662Z,0.60
2018-09-12T10:08:33.658Z,0.60
2018-09-12T10:09:33.653Z,0.80
2018-09-12T10:10:33.651Z,0.60
2018-09-12T10:11:33.650Z,0.50
2018-09-12T10:12:33.643Z,0.70
2018-09-12T10:13:33.639Z,0.60
2018-09-12T10:14:33.632Z,0.60
2018-09-12T10:15:33.626Z,0.60
2018-09-12T10:16:33.621Z,0.70
2018-09-12T10:17:33.615Z,0.50
2018-09-12T10:18:33.619Z,0.60
2018-09-12T10:19:33.606Z,0.50
2018-09-12T10:20:33.603Z,0.50
2018-09-12T10:21:33.595Z,0.50
2018-09-12T10:22:33.590Z,0.50
2018-09-12T10:23:33.621Z,0.60
2018-09-12T10:24:33.582Z,0.50
2018-09-12T10:25:33.578Z,0.60
2018-09-12T10:26:33.570Z,0.70
2018-09-12T10:27:33.570Z,0.60
2018-09-12T10:28:33.560Z,0.60
2018-09-12T10:29:33.559Z,0.70
2018-09-12T10:30:33.553Z,0.60
2018-09-12T10:31:33.548Z,0.60
2018-09-12T10:32:33.544Z,0.60
2018-09-12T10:33:33.535Z,0.50
2018-09-12T10:34:33.531Z,0.60
2018-09-12T10:35:33.526Z,0.50
2018-09-12T10:36:33.524Z,0.40
2018-09-12T10:37:33.517Z,0.40
2018-09-12T10:38:33.518Z,0.40
2018-09-12T10:39:33.510Z,0.40
2018-09-12T10:40:33.505Z,0.50
2018-09-12T10:41:33.498Z,0.40
2018-09-12T10:42:33.496Z,0.50
2018-09-12T10:43:33.491Z,0.40
2018-09-12T10:44:33.489Z,0.40
2018-09-12T10:45:33.481Z,0.50
2018-09-12T10:46:33.477Z,0.50
2018-09-12T10:47:33.474Z,0.40
2018-09-12T10:48:33.469Z,0.50
2018-09-12T10:49:33.465Z,0.50
2018-09-12T10:50:33.461Z,0.50
2018-09-12T10:51:33.458Z,0.50
2018-09-12T10:52:33.452Z,0.40
2018-09-12T10:53:33.451Z,0.40
2018-09-12T10:54:33.446Z,0.50
2018-09-12T10:55:33.440Z,0.40
2018-09-12T10:56:33.440Z,0.40
2018-09-12T10:57:33.433Z,0.40
2018-09-12T10:58:33.428Z,0.30
2018-09-12T10:59:33.422Z,0.50
2018-09-12T11:00:33.420Z,0.40
2018-09-12T11:01:33.418Z,0.50
2018-09-12T11:02:33.416Z,0.50
2018-09-12T11:03:33.406Z,0.50
2018-09-12T11:04:33.404Z,0.60
2018-09-12T11:05:33.397Z,0.40
2018-09-12T11:06:33.395Z,0.40
2018-09-12T11:07:33.398Z,0.50
2018-09-12T11:08:33.386Z,0.40
2018-09-12T11:09:33.382Z,0.40
2018-09-12T11:10:33.381Z,0.40
2018-09-12T11:11:33.375Z,0.40
2018-09-12T11:12:33.379Z,0.40
2018-09-12T11:13:33.373Z,0.50
2018-09-12T11:14:33.362Z,0.40
2018-09-12T11:15:33.357Z,0.40
2018-09-12T11:16:33.358Z,0.40
2018-09-12T11:17:33.350Z,0.40
2018-09-12T11:18:33.344Z,0.50
2018-09-12T11:19:33.343Z,0.40
2018-09-12T11:20:33.340Z,0.40
2018-09-12T11:21:33.334Z,0.40
2018-09-12T11:22:33.331Z,0.40
2018-09-12T11:23:33.326Z,0.50
2018-09-12T11:24:33.322Z,0.30
2018-09-12T11:25:33.317Z,0.40
2018-09-12T11:26:33.312Z,0.50
2018-09-12T11:27:33.309Z,0.50
2018-09-12T11:28:33.309Z,0.40
2018-09-12T11:29:33.303Z,0.40
2018-09-12T11:30:33.298Z,0.40
2018-09-12T11:31:33.294Z,0.40
2018-09-12T11:32:33.288Z,0.40
2018-09-12T11:33:33.288Z,0.50
2018-09-12T11:34:33.284Z,0.40
2018-09-12T11:35:33.278Z,0.40
2018-09-12T11:36:33.274Z,0.40
2018-09-12T11:37:33.277Z,0.30
2018-09-12T11:38:33.264Z,0.50
2018-09-12T11:39:33.265Z,0.40
2018-09-12T11:40:33.271Z,0.40
2018-09-12T11:41:33.265Z,0.40
2018-09-12T11:42:33.257Z,0.50
2018-09-12T11:43:33.259Z,0.60
2018-09-12T11:44:33.246Z,0.40
2018-09-12T11:45:33.251Z,0.40
2018-09-12T11:46:33.238Z,0.30
2018-09-12T11:47:33.240Z,0.40
2018-09-12T11:48:33.237Z,0.30
2018-09-12T11:49:33.228Z,0.30
2018-09-12T11:50:33.226Z,0.40
2018-09-12T11:51:33.225Z,0.30
2018-09-12T11:52:33.219Z,0.30
2018-09-12T11:53:33.216Z,0.30
2018-09-12T11:54:33.214Z,0.50
2018-09-12T11:55:33.222Z,0.50
2018-09-12T11:56:33.207Z,0.40
2018-09-12T11:57:33.202Z,0.30
2018-09-12T11:58:33.205Z,0.30
2018-09-12T11:59:33.196Z,0.30
2018-09-12T12:00:33.194Z,0.40
2018-09-12T12:01:33.189Z,0.30
2018-09-12T12:02:33.188Z,0.60
2018-09-12T12:03:33.182Z,0.40
2018-09-12T12:04:33.174Z,0.40
2018-09-12T12:05:33.174Z,0.30
2018-09-12T12:06:33.170Z,0.40
2018-09-12T12:07:33.166Z,0.30
2018-09-12T12:08:33.167Z,0.40
2018-09-12T12:09:33.157Z,0.40
2018-09-12T12:10:33.161Z,0.30
2018-09-12T12:11:33.151Z,0.40
2018-09-12T12:12:33.148Z,0.40
2018-09-12T12:13:33.144Z,0.40
2018-09-12T12:14:33.145Z,0.40
2018-09-12T12:15:33.136Z,0.40
2018-09-12T12:16:33.192Z,0.30
2018-09-12T12:17:33.132Z,0.40
2018-09-12T12:18:33.127Z,0.50
2018-09-12T12:19:33.125Z,0.40
2018-09-12T12:20:33.122Z,0.40
2018-09-12T12:21:33.119Z,0.50
2018-09-12T12:22:33.116Z,0.40
2018-09-12T12:23:33.162Z,0.40
2018-09-12T12:24:33.107Z,0.70
2018-09-12T12:25:33.106Z,0.40
2018-09-12T12:26:33.100Z,0.50
2018-09-12T12:27:33.097Z,0.60
2018-09-12T12:28:33.094Z,0.40
2018-09-12T12:29:33.094Z,0.50
2018-09-12T12:30:33.091Z,0.50
2018-09-12T12:31:33.085Z,0.50
2018-09-12T12:32:33.079Z,0.50
2018-09-12T12:33:33.078Z,0.50
2018-09-12T12:34:33.073Z,0.40
2018-09-12T12:35:33.192Z,0.50
2018-09-12T12:36:33.068Z,0.50
2018-09-12T12:37:33.063Z,0.50
2018-09-12T12:38:33.065Z,0.50
2018-09-12T12:39:33.056Z,0.50
2018-09-12T12:40:33.053Z,0.40
2018-09-12T12:41:33.048Z,0.50
2018-09-12T12:42:33.058Z,0.60
2018-09-12T12:43:33.062Z,0.50
2018-09-12T12:44:33.044Z,0.50
2018-09-12T12:45:33.035Z,0.40
2018-09-12T12:46:33.031Z,0.50
2018-09-12T12:47:33.039Z,0.50
2018-09-12T12:48:33.037Z,0.60
2018-09-12T12:49:33.020Z,0.50
2018-09-12T12:50:33.018Z,0.50
2018-09-12T12:51:33.018Z,0.50
2018-09-12T12:52:33.008Z,0.60
2018-09-12T12:53:32.999Z,0.40
2018-09-12T12:54:32.995Z,0.60
2018-09-12T12:55:32.993Z,0.40
2018-09-12T12:56:32.985Z,0.80
2018-09-12T12:57:32.987Z,0.50
2018-09-12T12:58:32.976Z,0.50
2018-09-12T12:59:32.972Z,0.50
2018-09-12T13:00:32.967Z,0.60
2018-09-12T13:01:32.962Z,0.60
2018-09-12T13:02:32.959Z,0.60
2018-09-12T13:03:32.953Z,0.60
2018-09-12T13:04:32.947Z,0.50
2018-09-12T13:05:33.008Z,0.60
2018-09-12T13:06:32.943Z,0.70
2018-09-12T13:07:32.932Z,0.70
2018-09-12T13:08:32.927Z,0.60
2018-09-12T13:09:32.926Z,0.70
2018-09-12T13:10:32.919Z,0.60
2018-09-12T13:11:32.912Z,0.80
2018-09-12T13:12:32.907Z,0.80
2018-09-12T13:13:32.906Z,0.60
2018-09-12T13:14:32.913Z,0.70
2018-09-12T13:15:32.891Z,0.50
2018-09-12T13:16:32.885Z,0.60
2018-09-12T13:17:32.881Z,0.60
2018-09-12T13:18:32.875Z,0.60
2018-09-12T13:19:32.869Z,0.60
2018-09-12T13:20:32.879Z,0.70
2018-09-12T13:21:32.942Z,0.70
2018-09-12T13:22:32.854Z,0.60
2018-09-12T13:23:32.846Z,0.60
2018-09-12T13:24:32.841Z,0.80
2018-09-12T13:25:32.835Z,0.60
2018-09-12T13:26:32.850Z,0.70
2018-09-12T13:27:32.833Z,0.70
2018-09-12T13:28:32.815Z,0.50
2018-09-12T13:29:32.813Z,0.60
2018-09-12T13:30:32.806Z,0.60
2018-09-12T13:31:32.799Z,0.60
2018-09-12T13:32:32.793Z,0.70
2018-09-12T13:33:32.788Z,0.60
2018-09-12T13:34:32.815Z,0.60
2018-09-12T13:35:32.776Z,0.70
2018-09-12T13:36:32.768Z,0.70
2018-09-12T13:37:32.763Z,0.70
2018-09-12T13:38:32.756Z,0.60
2018-09-12T13:39:32.756Z,0.60
2018-09-12T13:40:32.743Z,0.50
2018-09-12T13:41:32.739Z,0.50
2018-09-12T13:42:32.730Z,0.50
2018-09-12T13:43:32.726Z,0.40
2018-09-12T13:44:32.780Z,0.50
2018-09-12T13:45:32.733Z,0.40
2018-09-12T13:46:32.705Z,0.40
2018-09-12T13:47:32.707Z,0.40
2018-09-12T13:48:32.695Z,0.40
2018-09-12T13:49:32.686Z,0.40
2018-09-12T13:50:32.680Z,0.60
2018-09-12T13:51:32.674Z,0.70
2018-09-12T13:52:32.667Z,0.50
2018-09-12T13:53:32.662Z,0.50
2018-09-12T13:54:32.657Z,0.50
2018-09-12T13:55:32.651Z,0.50
2018-09-12T13:56:32.647Z,0.40
2018-09-12T13:57:32.637Z,0.40
2018-09-12T13:58:32.629Z,0.70
2018-09-12T13:59:32.619Z,0.40
2018-09-12T14:00:32.616Z,0.50
2018-09-12T14:01:32.609Z,0.40
2018-09-12T14:02:32.602Z,0.40
2018-09-12T14:03:32.597Z,0.50
2018-09-12T14:04:32.596Z,0.50
2018-09-12T14:05:32.583Z,0.40
2018-09-12T14:06:32.573Z,0.50
2018-09-12T14:07:32.567Z,0.70
2018-09-12T14:08:32.563Z,0.50
2018-09-12T14:09:32.554Z,0.40
2018-09-12T14:10:32.548Z,0.40
2018-09-12T14:11:32.544Z,0.60
2018-09-12T14:12:32.612Z,0.40
2018-09-12T14:13:32.532Z,0.40
2018-09-12T14:14:32.524Z,0.60
2018-09-12T14:15:32.516Z,0.40
2018-09-12T14:16:32.506Z,0.60
2018-09-12T14:17:32.506Z,0.70
2018-09-12T14:18:32.494Z,0.40
2018-09-12T14:19:32.549Z,0.40
2018-09-12T14:20:32.488Z,0.60
2018-09-12T14:21:32.477Z,0.50
2018-09-12T14:22:32.467Z,0.50
2018-09-12T14:23:32.459Z,0.60
2018-09-12T14:24:32.454Z,0.50
2018-09-12T14:25:32.448Z,0.50
2018-09-12T14:26:32.440Z,0.50
2018-09-12T14:27:32.433Z,0.50
2018-09-12T14:28:32.424Z,0.50
2018-09-12T14:29:32.420Z,0.40
2018-09-12T14:30:32.411Z,0.50
2018-09-12T14:31:32.404Z,0.50
2018-09-12T14:32:32.398Z,0.50
2018-09-12T14:33:32.388Z,0.50
2018-09-12T14:34:32.386Z,0.50
2018-09-12T14:35:32.378Z,0.60
2018-09-12T14:36:32.367Z,0.50
2018-09-12T14:37:32.362Z,0.50
2018-09-12T14:38:32.356Z,0.60
2018-09-12T14:39:32.416Z,0.50
2018-09-12T14:40:32.339Z,1.10
2018-09-12T14:41:32.333Z,0.70
2018-09-12T14:42:32.330Z,0.60
2018-09-12T14:43:32.324Z,0.60
2018-09-12T14:44:32.314Z,0.50
2018-09-12T14:45:32.309Z,0.80
2018-09-12T14:46:32.297Z,0.60
2018-09-12T14:47:32.293Z,0.60
2018-09-12T14:48:32.282Z,0.60
2018-09-12T14:49:32.280Z,0.50
2018-09-12T14:50:32.270Z,0.60
2018-09-12T14:51:32.265Z,0.60
2018-09-12T14:52:32.253Z,0.60
2018-09-12T14:53:32.249Z,0.70
2018-09-12T14:54:32.241Z,0.80
2018-09-12T14:55:32.235Z,0.60
2018-09-12T14:56:32.226Z,0.60
2018-09-12T14:57:32.294Z,0.50
2018-09-12T14:58:32.212Z,0.60
2018-09-12T14:59:32.206Z,0.60
2018-09-12T15:00:32.198Z,0.60
2018-09-12T15:01:32.189Z,0.70
2018-09-12T15:02:32.188Z,0.70
2018-09-12T15:03:32.177Z,0.50
2018-09-12T15:04:32.181Z,0.60
2018-09-12T15:05:32.164Z,0.80
2018-09-12T15:06:32.154Z,0.60
2018-09-12T15:07:32.155Z,0.60
2018-09-12T15:08:32.140Z,0.80
2018-09-12T15:09:32.131Z,0.60
2018-09-12T15:10:32.179Z,0.60
2018-09-12T15:11:32.120Z,0.60
2018-09-12T15:12:32.112Z,0.70
2018-09-12T15:13:32.102Z,0.70
2018-09-12T15:14:32.096Z,0.60
2018-09-12T15:15:32.089Z,0.80
2018-09-12T15:16:32.130Z,0.80
2018-09-12T15:17:32.071Z,0.70
2018-09-12T15:18:32.066Z,0.60
2018-09-12T15:19:32.057Z,1.10
2018-09-12T15:20:32.051Z,0.70
2018-09-12T15:21:32.046Z,0.70
2018-09-12T15:22:32.040Z,0.80
2018-09-12T15:23:32.026Z,0.70
2018-09-12T15:24:32.019Z,0.90
2018-09-12T15:25:32.010Z,0.90
2018-09-12T15:26:32.005Z,1.00
2018-09-12T15:27:31.997Z,0.90
2018-09-12T15:28:31.987Z,0.90
2018-09-12T15:29:31.979Z,1.00
2018-09-12T15:30:31.971Z,0.90
2018-09-12T15:31:31.975Z,1.10
2018-09-12T15:32:32.018Z,1.00
2018-09-12T15:33:31.948Z,1.10
2018-09-12T15:34:31.939Z,1.00
2018-09-12T15:35:32.030Z,1.00
2018-09-12T15:36:31.928Z,1.10
2018-09-12T15:37:31.921Z,1.60
2018-09-12T15:38:32.007Z,0.90
2018-09-12T15:39:32.020Z,1.10
2018-09-12T15:40:32.356Z,1.30
2018-09-12T15:41:32.097Z,0.90
2018-09-12T15:46:31.841Z,1.20
2018-09-12T15:47:31.926Z,1.10
2018-09-12T15:48:32.034Z,1.10
2018-09-12T15:51:14.338Z,1.00
2018-09-12T15:52:14.329Z,1.00
2018-09-12T15:53:14.326Z,1.10
2018-09-12T15:54:14.313Z,1.00
2018-09-12T15:55:14.307Z,0.90
2018-09-12T15:56:14.304Z,1.20
2018-09-12T15:57:14.288Z,1.00
2018-09-12T15:58:14.347Z,1.20
2018-09-12T15:59:14.270Z,1.40
2018-09-12T16:00:14.267Z,1.30
2018-09-12T16:01:14.254Z,1.30
2018-09-12T16:02:14.242Z,1.10
2018-09-12T16:03:14.236Z,1.30
2018-09-12T16:04:14.226Z,1.20
2018-09-12T16:05:14.216Z,1.30
2018-09-12T16:06:14.213Z,1.10
2018-09-12T16:07:14.197Z,1.20
2018-09-12T16:08:14.190Z,1.00
2018-09-12T16:09:14.180Z,1.10
2018-09-12T16:10:14.171Z,1.20
2018-09-12T16:11:14.161Z,0.90
2018-09-12T16:12:14.151Z,1.30
2018-09-12T16:13:14.145Z,1.20
2018-09-12T16:14:14.135Z,1.30
2018-09-12T16:15:14.176Z,1.30
2018-09-12T16:16:14.116Z,1.50
2018-09-12T16:17:14.107Z,1.20
2018-09-12T16:18:14.101Z,2.10
2018-09-12T16:19:14.085Z,1.30
2018-09-12T16:20:14.079Z,1.80
2018-09-12T16:21:14.072Z,1.50
2018-09-12T16:22:14.063Z,1.50
2018-09-12T16:23:14.069Z,1.10
2018-09-12T16:24:14.037Z,1.10
2018-09-12T16:25:14.033Z,1.60
2018-09-12T16:26:14.022Z,1.10
2018-09-12T16:27:14.012Z,1.20
2018-09-12T16:28:14.012Z,1.10
2018-09-12T16:29:13.993Z,1.20
2018-09-12T16:30:13.983Z,1.30
2018-09-12T16:31:13.973Z,1.30
2018-09-12T16:32:13.962Z,1.10
2018-09-12T16:33:13.951Z,1.10
2018-09-12T16:34:13.941Z,1.40
2018-09-12T16:35:13.932Z,1.30
2018-09-12T16:36:13.919Z,1.30
2018-09-12T16:37:13.913Z,1.30
2018-09-12T16:38:13.907Z,1.80
2018-09-12T16:39:13.893Z,2.30
2018-09-12T16:40:13.901Z,1.70
2018-09-12T16:41:13.868Z,1.50
2018-09-12T16:42:13.859Z,1.80
2018-09-12T16:43:13.855Z,1.40
2018-09-12T16:44:13.843Z,1.40
2018-09-12T16:45:13.840Z,1.50
2018-09-12T16:46:13.821Z,1.40
2018-09-12T16:47:13.808Z,1.60
2018-09-12T16:48:13.800Z,1.40
2018-09-12T16:49:13.787Z,1.40
2018-09-12T16:50:13.776Z,1.20
2018-09-12T16:51:13.773Z,1.30
2018-09-12T16:52:13.757Z,1.10
2018-09-12T16:53:13.746Z,1.20
2018-09-12T16:54:13.734Z,1.20
2018-09-12T16:55:13.727Z,1.30
2018-09-12T16:56:13.732Z,1.20
2018-09-12T16:57:13.704Z,1.20
2018-09-12T16:58:13.691Z,1.50
2018-09-12T16:59:13.681Z,1.10
2018-09-12T17:00:13.671Z,1.70
2018-09-12T17:01:13.658Z,1.30
2018-09-12T17:02:13.657Z,1.30
2018-09-12T17:03:13.642Z,1.40
2018-09-12T17:04:13.626Z,1.10
2018-09-12T17:05:13.617Z,1.40
2018-09-12T17:06:13.608Z,1.30
2018-09-12T17:07:13.595Z,1.20
2018-09-12T17:08:13.583Z,1.10
2018-09-12T17:09:13.572Z,1.00
2018-09-12T17:10:13.562Z,1.20
2018-09-12T17:11:13.551Z,1.20
2018-09-12T17:12:13.543Z,1.30
2018-09-12T17:13:13.529Z,1.60
2018-09-12T17:14:13.545Z,1.30
2018-09-12T17:15:13.506Z,1.50
2018-09-12T17:16:13.496Z,1.30
2018-09-12T17:17:13.484Z,1.30
2018-09-12T17:18:13.482Z,1.40
2018-09-12T17:19:13.465Z,1.30
2018-09-12T17:20:13.525Z,1.20
2018-09-12T17:21:13.437Z,1.40
2018-09-12T17:22:13.431Z,1.40
2018-09-12T17:23:13.415Z,1.60
2018-09-12T17:24:13.405Z,1.30
2018-09-12T17:25:13.395Z,1.20
2018-09-12T17:26:13.382Z,1.20
2018-09-12T17:27:13.369Z,1.30
2018-09-12T17:28:13.358Z,1.50
2018-09-12T17:29:13.351Z,1.10
2018-09-12T17:30:13.336Z,1.20
2018-09-12T17:31:13.325Z,1.40
2018-09-12T17:32:13.354Z,1.30
2018-09-12T17:33:13.300Z,1.40
2018-09-12T17:34:13.290Z,1.30
2018-09-12T17:35:13.282Z,1.20
2018-09-12T17:36:13.267Z,1.10
2018-09-12T17:37:13.267Z,1.10
2018-09-12T17:38:13.241Z,1.20
2018-09-12T17:39:13.229Z,1.20
2018-09-12T17:40:13.217Z,1.30
2018-09-12T17:41:13.207Z,1.30
2018-09-12T17:42:13.198Z,1.50
2018-09-12T17:43:13.186Z,1.40
2018-09-12T17:44:13.170Z,1.30
2018-09-12T17:45:13.161Z,1.60
2018-09-12T17:46:13.145Z,1.50
2018-09-12T17:47:13.136Z,1.90
2018-09-12T17:48:13.120Z,1.90
2018-09-12T17:49:13.112Z,1.50
2018-09-12T17:50:13.096Z,1.80
2018-09-12T17:51:13.087Z,1.40
2018-09-12T17:52:13.080Z,1.70
2018-09-12T17:53:13.061Z,1.50
2018-09-12T17:54:13.057Z,1.80
2018-09-12T17:55:13.037Z,1.50
2018-09-12T17:56:13.026Z,1.50
2018-09-12T17:57:13.013Z,1.90
2018-09-12T17:58:12.999Z,2.10
2018-09-12T17:59:12.991Z,2.00
2018-09-12T18:00:12.973Z,1.80
2018-09-12T18:01:12.963Z,1.90
2018-09-12T18:02:12.950Z,1.90
2018-09-12T18:03:12.937Z,1.80
2018-09-12T18:04:12.927Z,1.70
2018-09-12T18:05:12.912Z,1.40